Latest Coastal Weather Observations for Kingfish B

IDV60701

Issued at 3:51 pm EST Tuesday 28 July 2015 (issued every 10 minutes, with the page automatically refreshed every 10 minutes)

About coastal observations | Map of coastal stations | Coastal observations for VIC | Marine services | Other Formats
Station Details ID: 400139 Name: KINGFISH B (PLATFORM) Lat: -38.60 Lon: 148.19 Height: 31.4 m
Data from the previous 72 hours. | See also: Recent months for locations in Victoria
Date/Time
EST
Temp

°C
Wind Pressure Rain
since 9am
mm
Weather Cloud Vis
km
Sea
Height
m
Swell
Dir
 
Speed
knots
Gust
knots
hPa Trend Height
m
Period
s
Dir
28/02:30pm 13.4 WSW 18 22 1030.1 - - - - - - - - -
28/02:20pm 13.5 WSW 19 21 1030.1 - - - - - - - - -
28/02:10pm 13.6 WSW 18 21 1030.0 - - - - - - - - -
28/02:00pm 13.6 WSW 18 22 1030.0 - - - - - - - - -
28/01:50pm 13.6 WSW 18 22 1029.9 - - - - - - - - -
28/01:40pm 13.6 WSW 17 21 1029.9 - - - - - - - - -
28/01:30pm 13.5 WSW 17 20 1030.0 - - - - - - - - -
28/01:20pm 13.4 SW 16 19 1030.0 - - - - - - - - -
28/01:10pm 13.1 SW 16 19 1029.8 - - - - - - - - -
28/01:00pm 13.0 SW 16 20 1029.9 - - - - - - - - -
28/12:50pm 13.0 SW 17 20 1030.0 - - - - - - - - -
28/12:40pm 13.3 SW 16 19 1030.0 - - - - - - - - -
28/12:30pm 13.3 SW 17 21 1030.0 - - - - - - - - -
28/12:20pm 13.6 WSW 19 25 1030.1 - - - - - - - - -
28/12:10pm 13.7 WSW 18 21 1030.1 - - - - - - - - -
28/12:00pm 13.5 WSW 19 22 1030.1 - - - - - - - - -
28/11:50am 13.5 WSW 18 21 1030.3 - - - - - - - - -
28/11:40am 13.7 WSW 18 21 1030.3 - - - - - - - - -
28/11:30am 13.8 WSW 19 22 1030.4 - - - - - - - - -
28/11:20am 13.9 WSW 20 23 1030.5 - - - - - - - - -
28/11:10am 13.9 WSW 21 25 1030.4 - - - - - - - - -
28/11:00am 14.0 WSW 20 24 1030.6 - - - - - - - - -
28/10:50am 13.9 WSW 21 24 1030.6 - - - - - - - - -
28/10:40am 13.8 WSW 21 24 1030.7 - - - - - - - - -
28/10:30am 13.8 WSW 20 24 1030.8 - - - - - - - - -
28/10:20am 13.8 WSW 20 23 1030.8 - - - - - - - - -
28/10:10am 13.9 WSW 20 24 1030.8 - - - - - - - - -
28/10:00am 13.9 WSW 21 24 1030.9 - - - - - - - - -
28/09:50am 14.0 WSW 19 22 1031.1 - - - - - - - - -
28/09:40am 13.9 WSW 19 23 1031.1 - - - - - - - - -
28/09:30am 13.9 WSW 19 22 1031.0 - - - - - - - - -
28/09:20am 13.9 WSW 19 21 1030.9 - - - - - - - - -
28/09:10am 13.7 WSW 19 23 1030.9 - - - - - - - - -
28/09:00am 13.6 WSW 19 23 1030.8 - - - - - - - - -
28/08:50am 13.6 WSW 19 25 1030.6 - - - - - - - - -
28/08:40am 13.5 SW 18 24 1030.6 - - - - - - - - -
28/08:30am 13.2 SW 20 24 1030.5 - - - - - - - - -
28/08:20am 13.0 WSW 18 23 1030.4 - - - - - - - - -
28/08:10am 12.9 WSW 19 24 1030.3 - - - - - - - - -
28/08:00am 12.9 WSW 16 21 1030.4 - - - - - - - - -
28/07:50am 12.8 WSW 17 20 1030.3 - - - - - - - - -
28/07:40am 12.7 WSW 19 22 1030.2 - - - - - - - - -
28/07:30am 12.7 WSW 17 21 1030.2 - - - - - - - - -
28/07:20am 12.8 WSW 15 19 1030.1 - - - - - - - - -
28/07:10am 12.9 WSW 15 18 1030.1 - - - - - - - - -
28/07:00am 12.5 WSW 15 20 1029.9 - - - - - - - - -
28/06:50am 12.5 WSW 17 22 1029.8 - - - - - - - - -
28/06:40am 12.4 WSW 18 22 1029.6 - - - - - - - - -
28/06:30am 12.3 WSW 18 21 1029.5 - - - - - - - - -
28/06:20am 12.1 SW 20 24 1029.1 - - - - - - - - -
28/06:10am 12.2 SW 19 24 1029.0 - - - - - - - - -
28/06:00am 12.2 SW 18 21 1028.9 - - - - - - - - -
28/05:50am 12.2 SW 17 21 1028.8 - - - - - - - - -
28/05:40am 12.1 SW 19 22 1028.7 - - - - - - - - -
28/05:30am 12.1 SW 19 24 1028.6 - - - - - - - - -
28/05:20am 12.2 SW 18 24 1028.4 - - - - - - - - -
28/05:10am 12.1 SW 18 21 1028.2 - - - - - - - - -
28/05:00am 12.0 SW 20 24 1028.0 - - - - - - - - -
28/04:50am 12.1 SW 20 24 1027.9 - - - - - - - - -
28/04:40am 12.1 WSW 20 26 1027.8 - - - - - - - - -
28/04:30am 12.2 WSW 18 22 1027.7 - - - - - - - - -
28/04:20am 12.3 WSW 18 21 1027.6 - - - - - - - - -
28/04:10am 12.5 WSW 17 21 1027.6 - - - - - - - - -
28/04:00am 12.4 WSW 15 20 1027.6 - - - - - - - - -
28/03:50am 12.5 WSW 16 20 1027.4 - - - - - - - - -
28/03:40am 12.5 WSW 18 22 1027.3 - - - - - - - - -
28/03:30am 12.4 WSW 18 23 1027.2 - - - - - - - - -
28/03:20am 12.4 WSW 19 24 1027.1 - - - - - - - - -
28/03:10am 12.2 SW 19 24 1027.0 - - - - - - - - -
28/03:00am 12.1 SW 20 24 1026.9 - - - - - - - - -
28/02:50am 12.1 SW 18 22 1027.0 - - - - - - - - -
28/02:40am 12.0 SW 19 25 1026.8 - - - - - - - - -
28/02:30am 12.0 SW 18 22 1026.7 - - - - - - - - -
28/02:20am 12.0 WSW 18 23 1026.6 - - - - - - - - -
28/02:10am 12.0 WSW 19 23 1026.5 - - - - - - - - -
28/02:00am 12.0 WSW 19 27 1026.5 - - - - - - - - -
28/01:50am 11.8 SW 19 23 1026.4 - - - - - - - - -
28/01:40am 11.9 WSW 20 24 1026.4 - - - - - - - - -
28/01:30am 11.9 WSW 20 23 1026.4 - - - - - - - - -
28/01:20am 11.8 WSW 22 25 1026.2 - - - - - - - - -
28/01:10am 11.7 WSW 21 25 1026.3 - - - - - - - - -
28/12:50am 11.6 WSW 21 31 1026.0 - - - - - - - - -
28/12:40am 11.6 WSW 24 29 1025.8 - - - - - - - - -
28/12:30am 11.5 W 20 26 1025.9 - - - - - - - - -
28/12:20am 11.5 W 20 24 1026.0 - - - - - - - - -
28/12:10am 11.6 W 22 25 1025.9 - - - - - - - - -
28/12:00am 11.7 W 21 26 1026.1 - - - - - - - - -
 
Date/Time
EST
Temp

°C
Wind Pressure Rain
since 9am
mm
Weather Cloud Vis
km
Sea
Height
m
Swell
Dir
 
Speed
knots
Gust
knots
hPa Trend Height
m
Period
s
Dir
27/11:50pm 11.7 WSW 21 26 1025.9 - - - - - - - - -
27/11:40pm 11.8 WSW 21 28 1025.7 - - - - - - - - -
27/11:30pm 11.8 W 21 25 1025.9 - - - - - - - - -
27/11:20pm 11.8 WSW 22 26 1025.8 - - - - - - - - -
27/11:10pm 12.0 WSW 21 26 1025.8 - - - - - - - - -
27/11:00pm 11.8 WSW 24 29 1025.5 - - - - - - - - -
27/10:50pm 11.9 WSW 22 27 1025.6 - - - - - - - - -
27/10:40pm 11.8 WSW 24 29 1025.6 - - - - - - - - -
27/10:30pm 11.8 WSW 24 29 1025.7 - - - - - - - - -
27/10:20pm 11.8 WSW 22 28 1025.8 - - - - - - - - -
27/10:10pm 11.7 WSW 23 29 1025.8 - - - - - - - - -
27/10:00pm 11.7 WSW 23 27 1025.9 - - - - - - - - -
27/09:50pm 11.8 WSW 24 30 1025.7 - - - - - - - - -
27/09:40pm 11.8 WSW 25 30 1025.7 - - - - - - - - -
27/09:30pm 12.0 WSW 25 29 1025.7 - - - - - - - - -
27/09:20pm 11.9 WSW 22 26 1025.8 - - - - - - - - -
27/09:10pm 11.9 WSW 22 28 1025.8 - - - - - - - - -
27/09:00pm 11.8 WSW 20 25 1026.0 - - - - - - - - -
27/08:50pm 12.0 WSW 24 29 1025.8 - - - - - - - - -
27/08:40pm 12.3 WSW 23 30 1025.7 - - - - - - - - -
27/08:30pm 12.2 WSW 23 30 1025.6 - - - - - - - - -
27/08:20pm 12.1 WSW 21 26 1025.7 - - - - - - - - -
27/08:10pm 12.0 WSW 23 28 1025.5 - - - - - - - - -
27/08:00pm 12.0 WSW 24 31 1025.3 - - - - - - - - -
27/07:50pm 12.0 WSW 24 30 1025.2 - - - - - - - - -
27/07:40pm 12.0 WSW 22 25 1025.4 - - - - - - - - -
27/07:30pm 11.8 WSW 21 24 1025.5 - - - - - - - - -
27/07:20pm 11.8 WSW 22 27 1025.4 - - - - - - - - -
27/07:10pm 11.9 WSW 24 29 1025.1 - - - - - - - - -
27/07:00pm 12.0 WSW 26 33 1024.8 - - - - - - - - -
27/06:50pm 12.1 WSW 27 31 1024.7 - - - - - - - - -
27/06:40pm 12.0 WSW 25 32 1024.6 - - - - - - - - -
27/06:30pm 12.0 WSW 23 28 1024.8 - - - - - - - - -
27/06:20pm 11.9 WSW 23 31 1024.7 - - - - - - - - -
27/06:10pm 11.7 WSW 25 32 1024.6 - - - - - - - - -
27/06:00pm 11.7 SW 28 33 1024.3 - - - - - - - - -
27/05:50pm 11.6 WSW 24 32 1024.4 - - - - - - - - -
27/05:40pm 11.5 WSW 24 28 1024.3 - - - - - - - - -
27/05:30pm 11.5 WSW 23 27 1024.3 - - - - - - - - -
27/05:20pm 11.7 WSW 24 30 1024.2 - - - - - - - - -
27/05:10pm 12.0 WSW 23 31 1024.1 - - - - - - - - -
27/05:00pm 11.9 WSW 22 27 1024.0 - - - - - - - - -
27/04:50pm 11.7 WSW 20 27 1024.0 - - - - - - - - -
27/04:40pm 11.5 WSW 23 29 1023.8 - - - - - - - - -
27/04:30pm 11.8 WSW 28 37 1023.5 - - - - - - - - -
27/04:20pm 12.1 SW 27 32 1023.2 - - - - - - - - -
27/04:10pm 11.9 SW 25 31 1023.2 - - - - - - - - -
27/04:00pm 11.9 WSW 22 27 1023.3 - - - - - - - - -
27/03:50pm 12.0 WSW 26 36 1023.0 - - - - - - - - -
27/03:40pm 12.3 SW 25 32 1023.0 - - - - - - - - -
27/03:30pm 12.4 WSW 26 30 1022.8 - - - - - - - - -
27/03:20pm 12.4 WSW 25 29 1022.7 - - - - - - - - -
27/03:10pm 12.4 SW 26 30 1022.7 - - - - - - - - -
27/03:00pm 12.4 WSW 26 31 1022.6 - - - - - - - - -
27/02:50pm 12.4 WSW 26 33 1022.5 - - - - - - - - -
27/02:40pm 12.4 SW 25 31 1022.4 - - - - - - - - -
27/02:30pm 12.5 WSW 26 33 1022.3 - - - - - - - - -
27/02:20pm 12.7 WSW 27 32 1022.1 - - - - - - - - -
27/02:10pm 12.6 WSW 26 31 1022.1 - - - - - - - - -
27/02:00pm 12.7 WSW 24 30 1022.0 - - - - - - - - -
27/01:50pm 12.6 WSW 26 30 1022.0 - - - - - - - - -
27/01:40pm 12.6 WSW 25 30 1022.0 - - - - - - - - -
27/01:30pm 12.5 WSW 26 31 1021.8 - - - - - - - - -
27/01:20pm 12.5 WSW 24 31 1021.9 - - - - - - - - -
27/01:10pm 12.4 WSW 25 31 1021.7 - - - - - - - - -
27/01:00pm 12.5 WSW 26 32 1021.6 - - - - - - - - -
27/12:50pm 12.6 WSW 24 29 1021.7 - - - - - - - - -
27/12:40pm 12.5 WSW 22 27 1021.7 - - - - - - - - -
27/12:30pm 12.5 WSW 20 27 1021.9 - - - - - - - - -
27/12:20pm 12.5 WSW 20 25 1022.0 - - - - - - - - -
27/12:10pm 12.4 WSW 25 31 1021.8 - - - - - - - - -
27/12:00pm 12.4 WSW 23 29 1021.9 - - - - - - - - -
27/11:50am 12.3 WSW 21 25 1022.0 - - - - - - - - -
27/11:40am 12.3 SW 23 28 1022.1 - - - - - - - - -
27/11:30am 12.3 SW 23 28 1022.1 - - - - - - - - -
27/11:20am 12.4 WSW 23 29 1022.1 - - - - - - - - -
27/11:10am 12.4 SW 23 28 1022.1 - - - - - - - - -
27/11:00am 12.4 SW 24 30 1022.2 - - - - - - - - -
27/10:50am 12.4 SW 23 29 1022.2 - - - - - - - - -
27/10:40am 12.2 SW 26 31 1022.0 - - - - - - - - -
27/10:30am 12.1 SW 21 30 1022.7 - - - - - - - - -
27/10:20am 11.7 SW 19 23 1022.6 - - - - - - - - -
27/10:10am 12.1 WSW 19 24 1022.6 - - - - - - - - -
27/10:00am 12.1 SW 24 30 1022.3 - - - - - - - - -
27/09:50am 12.1 SW 27 33 1022.3 - - - - - - - - -
27/09:40am 12.5 SW 24 31 1022.3 - - - - - - - - -
27/09:20am 12.3 SW 27 32 1022.7 - - - - - - - - -
27/09:10am 12.0 SW 28 33 1022.5 - - - - - - - - -
27/09:00am 11.9 SW 30 36 1022.4 - - - - - - - - -
27/08:50am 12.0 SW 27 33 1021.5 - - - - - - - - -
27/08:40am 12.0 SW 27 32 1020.8 - - - - - - - - -
27/08:30am 11.6 SW 27 32 1020.7 - - - - - - - - -
27/08:20am 11.1 SW 27 33 1020.7 - - - - - - - - -
27/08:10am 11.2 SW 26 33 1021.8 - - - - - - - - -
27/08:00am 10.9 SW 29 36 1021.3 - - - - - - - - -
27/07:50am 10.7 SW 24 30 1020.5 - - - - - - - - -
27/07:40am 10.6 WSW 28 34 1020.1 - - - - - - - - -
27/07:30am 10.5 SW 30 41 1020.2 - - - - - - - - -
27/07:20am 10.9 SW 29 37 1020.8 - - - - - - - - -
27/07:10am 10.7 SSW 28 34 1021.6 - - - - - - - - -
27/07:00am 10.6 SW 27 33 1019.9 - - - - - - - - -
27/06:50am 10.9 SW 29 36 1019.7 - - - - - - - - -
27/06:40am 10.7 SW 30 37 1019.6 - - - - - - - - -
27/06:30am 10.5 SW 32 41 1019.4 - - - - - - - - -
27/06:20am 10.2 SW 30 38 1019.0 - - - - - - - - -
27/06:10am 9.9 SW 27 33 1019.1 - - - - - - - - -
27/06:00am 9.6 SW 27 33 1018.8 - - - - - - - - -
27/05:50am 9.3 SW 25 30 1018.8 - - - - - - - - -
27/05:40am 9.2 SW 27 36 1018.7 - - - - - - - - -
27/05:30am 9.4 WSW 31 39 1018.2 - - - - - - - - -
27/05:20am 9.7 WSW 30 39 1017.9 - - - - - - - - -
27/05:10am 9.9 WSW 24 30 1018.1 - - - - - - - - -
27/04:50am 9.7 SW 29 34 1018.5 - - - - - - - - -
27/04:40am 9.5 SW 30 37 1017.8 - - - - - - - - -
27/04:30am 9.2 SW 26 32 1017.9 - - - - - - - - -
27/04:20am 9.0 WSW 30 38 1017.3 - - - - - - - - -
27/04:10am 8.7 WSW 33 40 1016.9 - - - - - - - - -
27/04:00am 9.2 WSW 36 47 1016.8 - - - - - - - - -
27/03:50am 9.5 WSW 30 36 1016.5 - - - - - - - - -
27/03:40am 8.9 WSW 32 42 1016.4 - - - - - - - - -
27/03:30am 9.7 WSW 31 45 1016.4 - - - - - - - - -
27/03:20am 9.6 WSW 31 38 1016.3 - - - - - - - - -
27/03:10am 9.5 WSW 29 36 1016.3 - - - - - - - - -
27/03:00am 9.3 SW 31 37 1016.2 - - - - - - - - -
27/02:50am 9.2 SW 30 42 1016.6 - - - - - - - - -
27/02:40am 9.2 SW 28 33 1016.2 - - - - - - - - -
27/02:30am 9.0 WSW 27 33 1016.1 - - - - - - - - -
27/02:20am 9.3 SW 35 44 1015.8 - - - - - - - - -
27/02:10am 9.7 WSW 29 46 1015.9 - - - - - - - - -
27/02:00am 9.7 WSW 25 34 1016.1 - - - - - - - - -
27/01:50am 9.4 WSW 25 32 1015.9 - - - - - - - - -
27/01:40am 9.1 WSW 27 34 1015.9 - - - - - - - - -
27/01:30am 9.3 WSW 29 35 1015.6 - - - - - - - - -
27/01:20am 9.1 WSW 27 33 1015.5 - - - - - - - - -
27/01:10am 9.6 WSW 29 40 1015.5 - - - - - - - - -
27/01:00am 9.2 WSW 27 33 1015.3 - - - - - - - - -
27/12:50am 9.0 WSW 29 38 1015.1 - - - - - - - - -
27/12:40am 9.0 WSW 32 41 1015.0 - - - - - - - - -
27/12:30am 9.7 WSW 32 43 1014.8 - - - - - - - - -
27/12:20am 9.7 W 29 34 1014.6 - - - - - - - - -
27/12:10am 9.7 W 30 35 1014.6 - - - - - - - - -
27/12:00am 9.7 WSW 30 37 1014.4 - - - - - - - - -
 
Date/Time
EST
Temp

°C
Wind Pressure Rain
since 9am
mm
Weather Cloud Vis
km
Sea
Height
m
Swell
Dir
 
Speed
knots
Gust
knots
hPa Trend Height
m
Period
s
Dir
26/11:50pm 9.6 WSW 30 39 1014.4 - - - - - - - - -
26/11:40pm 9.8 WSW 32 40 1014.2 - - - - - - - - -
26/11:30pm 9.8 WSW 28 34 1014.3 - - - - - - - - -
26/11:20pm 9.6 WSW 28 34 1014.5 - - - - - - - - -
26/11:10pm 9.4 WSW 31 38 1014.3 - - - - - - - - -
26/11:00pm 9.8 WSW 32 41 1014.3 - - - - - - - - -
26/10:50pm 10.2 W 32 39 1014.2 - - - - - - - - -
26/10:40pm 10.3 W 30 36 1014.2 - - - - - - - - -
26/10:30pm 10.2 W 31 37 1014.0 - - - - - - - - -
26/10:20pm 10.1 WSW 32 38 1013.9 - - - - - - - - -
26/10:10pm 10.2 WSW 33 41 1013.7 - - - - - - - - -
26/10:00pm 10.4 W 34 42 1013.5 - - - - - - - - -
26/09:50pm 10.3 W 33 42 1013.3 - - - - - - - - -
26/09:40pm 10.2 W 32 39 1013.4 - - - - - - - - -
26/09:30pm 10.2 W 31 39 1013.3 - - - - - - - - -
26/09:20pm 10.4 W 33 39 1013.2 - - - - - - - - -
26/09:10pm 10.2 W 32 39 1013.1 - - - - - - - - -
26/09:00pm 10.2 W 30 36 1013.2 - - - - - - - - -
26/08:50pm 10.3 W 33 38 1013.1 - - - - - - - - -
26/08:40pm 10.2 W 33 41 1012.9 - - - - - - - - -
26/08:30pm 10.3 W 34 40 1012.7 - - - - - - - - -
26/08:20pm 10.3 W 35 43 1012.5 - - - - - - - - -
26/08:10pm 10.3 W 33 40 1012.7 - - - - - - - - -
26/08:00pm 10.5 W 34 47 1012.3 - - - - - - - - -
26/07:50pm 10.7 W 36 48 1012.1 - - - - - - - - -
26/07:40pm 10.6 W 34 44 1012.4 - - - - - - - - -
26/07:30pm 10.6 WSW 33 41 1012.2 - - - - - - - - -
26/07:20pm 10.6 WSW 37 45 1011.8 - - - - - - - - -
26/07:10pm 10.8 W 35 42 1012.0 - - - - - - - - -
26/07:00pm 10.8 W 34 43 1012.0 - - - - - - - - -
26/06:40pm 10.8 W 34 41 1011.7 - - - - - - - - -
26/06:30pm 10.7 W 32 38 1011.4 - - - - - - - - -
26/06:20pm 10.7 W 35 43 1011.1 - - - - - - - - -
26/06:10pm 10.6 W 34 41 1011.0 - - - - - - - - -
26/06:00pm 10.7 W 35 42 1010.9 - - - - - - - - -
26/05:50pm 10.7 W 36 42 1010.8 - - - - - - - - -
26/05:40pm 10.7 W 35 42 1010.6 - - - - - - - - -
26/05:30pm 10.8 W 35 46 1010.5 - - - - - - - - -
26/05:20pm 10.7 W 35 46 1010.2 - - - - - - - - -
26/05:10pm 10.7 W 36 45 1010.1 - - - - - - - - -
26/05:00pm 10.7 W 35 43 1010.1 - - - - - - - - -
26/04:50pm 10.6 W 34 44 1010.1 - - - - - - - - -
26/04:40pm 10.6 W 34 41 1010.0 - - - - - - - - -
26/04:30pm 10.7 W 34 41 1009.9 - - - - - - - - -
26/04:20pm 10.6 W 30 40 1009.8 - - - - - - - - -
26/04:10pm 10.1 W 29 36 1009.8 - - - - - - - - -
26/04:00pm 9.8 W 28 34 1009.9 - - - - - - - - -
26/03:50pm 9.8 W 28 36 1009.7 - - - - - - - - -
26/03:40pm 9.4 WSW 27 35 1009.6 - - - - - - - - -
26/03:30pm 9.0 WSW 28 47 1009.5 - - - - - - - - -
26/03:20pm 10.0 WSW 31 50 1009.4 - - - - - - - - -
26/03:10pm 10.0 WSW 24 29 1009.6 - - - - - - - - -
26/03:00pm 9.8 WSW 24 31 1009.5 - - - - - - - - -
26/02:50pm 10.7 WSW 32 42 1009.2 - - - - - - - - -
26/02:40pm 11.0 W 35 43 1009.1 - - - - - - - - -
26/02:30pm 11.0 W 34 41 1008.9 - - - - - - - - -
26/02:20pm 10.8 W 32 40 1009.1 - - - - - - - - -
26/02:10pm 11.0 W 33 41 1008.9 - - - - - - - - -
26/02:00pm 10.8 W 33 41 1008.7 - - - - - - - - -
26/01:50pm 10.6 W 33 39 1008.7 - - - - - - - - -
26/01:40pm 10.1 W 27 35 1008.8 - - - - - - - - -
26/01:30pm 9.8 W 27 32 1008.9 - - - - - - - - -
26/01:20pm 10.0 W 23 29 1009.0 - - - - - - - - -
26/01:00pm 9.9 WSW 27 32 1008.5 - - - - - - - - -
26/12:50pm 9.9 WSW 30 35 1008.3 - - - - - - - - -
26/12:40pm 10.0 WSW 32 41 1008.1 - - - - - - - - -
26/12:30pm 11.4 WSW 35 43 1007.7 - - - - - - - - -
26/12:20pm 11.7 W 35 43 1007.9 - - - - - - - - -
26/12:10pm 11.8 W 34 41 1007.8 - - - - - - - - -
26/12:00pm 11.9 W 34 41 1007.7 - - - - - - - - -
26/11:50am 12.0 W 36 43 1007.8 - - - - - - - - -
26/11:40am 12.1 W 33 40 1007.8 - - - - - - - - -
26/11:30am 12.0 W 33 40 1008.0 - - - - - - - - -
26/11:20am 11.9 W 37 43 1007.7 - - - - - - - - -
26/11:10am 11.9 W 37 44 1007.8 - - - - - - - - -
26/11:00am 12.0 W 36 44 1007.8 - - - - - - - - -
26/10:50am 11.9 W 36 44 1007.9 - - - - - - - - -
26/10:40am 11.9 W 36 42 1007.8 - - - - - - - - -
26/10:30am 12.0 W 34 45 1008.0 - - - - - - - - -
26/10:20am 11.9 W 33 41 1008.3 - - - - - - - - -
26/10:10am 11.8 W 34 42 1008.3 - - - - - - - - -
26/10:00am 11.9 W 31 39 1008.3 - - - - - - - - -
26/09:50am 11.8 W 31 37 1008.4 - - - - - - - - -
26/09:40am 11.7 W 30 38 1008.4 - - - - - - - - -
26/09:30am 11.8 W 34 39 1008.3 - - - - - - - - -
26/09:20am 11.7 W 33 38 1008.1 - - - - - - - - -
26/09:10am 11.7 W 29 35 1008.0 - - - - - - - - -
26/09:00am 11.8 W 31 38 1007.7 - - - - - - - - -
26/08:50am 11.7 W 33 39 1007.5 - - - - - - - - -
26/08:40am 11.7 W 30 36 1007.7 - - - - - - - - -
26/08:30am 11.6 W 35 43 1007.6 - - - - - - - - -
26/08:20am 11.6 W 33 41 1007.6 - - - - - - - - -
26/08:10am 11.5 W 30 35 1007.5 - - - - - - - - -
26/08:00am 11.5 W 29 35 1007.6 - - - - - - - - -
26/07:50am 11.6 WSW 29 35 1007.5 - - - - - - - - -
26/07:30am 11.6 W 27 33 1007.5 - - - - - - - - -
26/07:20am 11.6 W 26 34 1007.4 - - - - - - - - -
26/07:10am 11.5 W 27 35 1007.2 - - - - - - - - -
26/07:00am 11.5 W 26 31 1007.1 - - - - - - - - -
26/06:50am 11.5 W 26 33 1007.0 - - - - - - - - -
26/06:40am 11.2 W 27 34 1006.9 - - - - - - - - -
26/06:30am 11.2 W 29 36 1006.9 - - - - - - - - -
26/06:20am 11.1 W 31 41 1006.8 - - - - - - - - -
26/06:10am 11.0 W 28 34 1006.8 - - - - - - - - -
26/06:00am 11.2 WSW 29 41 1006.7 - - - - - - - - -
26/05:50am 11.4 WSW 31 40 1006.5 - - - - - - - - -
26/05:40am 11.3 WSW 29 36 1006.4 - - - - - - - - -
26/05:30am 11.4 WSW 28 36 1006.4 - - - - - - - - -
26/05:20am 11.5 WSW 29 40 1006.3 - - - - - - - - -
26/05:10am 12.0 WSW 28 35 1006.3 - - - - - - - - -
26/05:00am 12.3 WSW 26 32 1006.3 - - - - - - - - -
26/04:50am 12.4 WSW 24 30 1006.5 - - - - - - - - -
26/04:40am 12.4 WSW 23 30 1006.4 - - - - - - - - -
26/04:30am 12.4 WSW 25 31 1006.1 - - - - - - - - -
26/04:20am 12.5 WSW 24 30 1006.3 - - - - - - - - -
26/04:10am 12.6 WSW 22 28 1006.3 - - - - - - - - -
26/04:00am 12.5 WSW 20 25 1006.5 - - - - - - - - -
26/03:50am 12.4 W 19 25 1006.8 - - - - - - - - -
26/03:40am 12.1 WSW 21 27 1006.6 - - - - - - - - -
26/03:30am 12.2 WSW 21 28 1006.6 - - - - - - - - -
26/03:20am 12.9 SW 24 29 1006.4 - - - - - - - - -
26/03:10am 14.2 W 19 35 1006.5 - - - - - - - - -
26/03:00am 14.4 W 21 29 1006.4 - - - - - - - - -
26/02:50am 15.2 WNW 22 30 1006.2 - - - - - - - - -
26/02:40am 15.5 WNW 24 30 1005.9 - - - - - - - - -
26/02:30am 15.7 WNW 23 31 1005.7 - - - - - - - - -
26/02:20am 15.7 WNW 23 27 1005.8 - - - - - - - - -
26/02:10am 15.7 WNW 24 28 1006.0 - - - - - - - - -
26/02:00am 15.6 WNW 22 29 1006.1 - - - - - - - - -
26/01:50am 15.0 NW 19 24 1006.0 - - - - - - - - -
26/01:40am 14.5 NW 16 22 1006.1 - - - - - - - - -
26/01:30am 14.5 NW 17 22 1006.1 - - - - - - - - -
26/01:20am 14.6 NW 19 24 1006.1 - - - - - - - - -
26/01:10am 14.6 NW 21 25 1006.0 - - - - - - - - -
26/01:00am 14.6 NW 22 27 1006.3 - - - - - - - - -
26/12:50am 14.6 NW 21 25 1006.4 - - - - - - - - -
26/12:40am 14.5 NNW 20 24 1006.5 - - - - - - - - -
26/12:30am 14.6 NW 21 28 1006.5 - - - - - - - - -
26/12:20am 14.8 NW 23 28 1006.5 - - - - - - - - -
26/12:10am 14.7 NW 24 30 1006.6 - - - - - - - - -
26/12:00am 14.6 NNW 24 29 1006.7 - - - - - - - - -
 
Date/Time
EST
Temp

°C
Wind Pressure Rain
since 9am
mm
Weather Cloud Vis
km
Sea
Height
m
Swell
Dir
 
Speed
knots
Gust
knots
hPa Trend Height
m
Period
s
Dir
25/11:50pm 14.4 NNW 20 29 1006.7 - - - - - - - - -
25/11:40pm 14.5 NNW 20 26 1007.0 - - - - - - - - -
25/11:30pm 14.5 NW 23 28 1007.3 - - - - - - - - -
25/11:20pm 14.5 NW 22 27 1007.4 - - - - - - - - -
25/11:10pm 14.5 NNW 22 27 1007.6 - - - - - - - - -
25/11:00pm 14.4 NNW 20 27 1007.8 - - - - - - - - -
25/10:50pm 14.4 NNW 22 26 1007.8 - - - - - - - - -
25/10:40pm 14.3 NNW 21 27 1008.1 - - - - - - - - -
25/10:30pm 14.3 NNW 19 26 1008.4 - - - - - - - - -
25/10:20pm 14.3 NNW 19 24 1008.6 - - - - - - - - -
25/10:10pm 14.3 NW 19 25 1008.7 - - - - - - - - -
25/10:00pm 14.4 NW 20 24 1008.8 - - - - - - - - -
25/09:50pm 14.4 NW 21 25 1009.2 - - - - - - - - -
25/09:40pm 14.4 NW 21 25 1009.4 - - - - - - - - -
25/09:30pm 14.4 NW 21 24 1009.6 - - - - - - - - -
25/09:20pm 14.4 NW 20 24 1009.8 - - - - - - - - -
25/09:10pm 14.5 NW 21 25 1009.9 - - - - - - - - -
25/09:00pm 14.8 NW 22 27 1010.0 - - - - - - - - -
25/08:50pm 14.8 NW 21 25 1010.1 - - - - - - - - -
25/08:40pm 14.8 NW 22 25 1010.1 - - - - - - - - -
25/08:30pm 14.7 NW 22 26 1010.2 - - - - - - - - -
25/08:20pm 14.8 NW 18 23 1010.3 - - - - - - - - -
25/08:10pm 15.0 NW 20 24 1010.2 - - - - - - - - -
25/08:00pm 14.9 NW 19 24 1010.1 - - - - - - - - -
25/07:50pm 14.7 NW 17 20 1010.1 - - - - - - - - -
25/07:40pm 14.6 NW 14 17 1010.1 - - - - - - - - -
25/07:30pm 14.6 NW 13 17 1010.2 - - - - - - - - -
25/07:20pm 14.6 NW 14 17 1010.2 - - - - - - - - -
25/07:10pm 14.6 NW 14 16 1010.3 - - - - - - - - -
25/07:00pm 14.4 NW 12 15 1010.3 - - - - - - - - -
25/06:50pm 14.7 NW 12 17 1010.4 - - - - - - - - -
25/06:40pm 15.0 WNW 15 19 1010.4 - - - - - - - - -
25/06:30pm 15.0 WNW 14 18 1010.5 - - - - - - - - -
25/06:20pm 15.0 WNW 13 16 1010.6 - - - - - - - - -
25/06:10pm 15.0 WNW 13 18 1010.7 - - - - - - - - -
25/06:00pm 14.8 WNW 12 17 1010.8 - - - - - - - - -
25/05:50pm 14.4 W 12 17 1010.9 - - - - - - - - -
25/05:40pm 14.3 W 13 18 1010.9 - - - - - - - - -
25/05:20pm 14.2 W 13 17 1010.8 - - - - - - - - -
25/05:10pm 14.2 W 14 20 1010.7 - - - - - - - - -
25/05:00pm 14.2 W 17 20 1010.6 - - - - - - - - -
25/04:50pm 14.2 W 17 22 1010.5 - - - - - - - - -
25/04:40pm 14.2 W 18 23 1010.5 - - - - - - - - -
25/04:30pm 14.3 W 20 25 1010.4 - - - - - - - - -
25/04:20pm 14.3 W 19 23 1010.4 - - - - - - - - -
25/04:10pm 14.4 W 18 22 1010.3 - - - - - - - - -
25/04:00pm 14.4 W 18 22 1010.2 - - - - - - - - -

Other Formats:

Comma delimited format used in spreadsheet applications
http://www.bom.gov.au/fwo/IDV60701/IDV60701.55039.axf

JavaScript Object Notation format (JSON) in row-major order
http://www.bom.gov.au/fwo/IDV60701/IDV60701.55039.json